createdAt,value
2023-05-10T00:02:07.014Z,9.38
2023-05-10T00:04:33.946Z,9.41
2023-05-10T00:07:01.000Z,9.44
2023-05-10T00:09:28.118Z,9.47
2023-05-10T00:11:54.965Z,9.49
2023-05-10T00:14:21.904Z,9.49
2023-05-10T00:16:48.862Z,9.49
2023-05-10T00:19:16.159Z,9.52
2023-05-10T00:21:43.133Z,9.56
2023-05-10T00:24:10.048Z,9.58
2023-05-10T00:26:36.954Z,9.59
2023-05-10T00:29:03.830Z,9.60
2023-05-10T00:31:30.729Z,9.60
2023-05-10T00:33:58.004Z,9.61
2023-05-10T00:36:24.860Z,9.63
2023-05-10T00:38:51.798Z,9.65
2023-05-10T00:41:18.880Z,9.64
2023-05-10T00:43:46.279Z,9.62
2023-05-10T00:46:13.311Z,9.58
2023-05-10T00:48:40.240Z,9.56
2023-05-10T00:51:07.606Z,9.56
2023-05-10T00:53:34.520Z,9.54
2023-05-10T00:56:01.486Z,9.54
2023-05-10T00:58:29.447Z,9.55
2023-05-10T01:00:58.318Z,9.54
2023-05-10T01:03:26.356Z,9.56
2023-05-10T01:05:53.276Z,9.56
2023-05-10T01:08:20.180Z,9.55
2023-05-10T01:10:47.564Z,9.56
2023-05-10T01:13:14.646Z,9.53
2023-05-10T01:15:41.857Z,9.50
2023-05-10T01:18:09.322Z,9.52
2023-05-10T01:20:39.397Z,9.49
2023-05-10T01:23:12.932Z,9.53
2023-05-10T01:26:08.097Z,9.56
2023-05-10T01:28:53.201Z,9.58
2023-05-10T01:31:29.180Z,9.59
2023-05-10T01:34:14.036Z,9.67
2023-05-10T01:37:00.348Z,9.73
2023-05-10T01:39:33.193Z,9.75
2023-05-10T01:42:00.014Z,9.64
2023-05-10T01:44:45.266Z,9.61
2023-05-10T01:47:16.021Z,9.62
2023-05-10T01:49:51.397Z,9.65
2023-05-10T01:52:20.627Z,9.68
2023-05-10T01:54:55.067Z,9.66
2023-05-10T01:57:21.961Z,9.66
2023-05-10T01:59:50.954Z,9.68
2023-05-10T02:02:18.586Z,9.70
2023-05-10T02:04:45.552Z,9.69
2023-05-10T02:07:12.668Z,9.72
2023-05-10T02:09:39.630Z,9.74
2023-05-10T02:12:07.334Z,9.74
2023-05-10T02:14:36.609Z,9.74
2023-05-10T02:17:05.250Z,9.74
2023-05-10T02:19:32.699Z,9.74
2023-05-10T02:22:00.144Z,9.76
2023-05-10T02:24:27.005Z,9.76
2023-05-10T02:26:55.134Z,9.74
2023-05-10T02:29:22.007Z,9.71
2023-05-10T02:31:48.905Z,9.65
2023-05-10T02:34:15.933Z,9.65
2023-05-10T02:36:42.801Z,9.63
2023-05-10T02:39:14.659Z,9.63
2023-05-10T02:41:42.513Z,9.64
2023-05-10T02:44:10.184Z,9.61
2023-05-10T02:46:38.446Z,9.58
2023-05-10T02:49:05.392Z,9.56
2023-05-10T02:51:33.377Z,9.55
2023-05-10T02:54:03.014Z,9.56
2023-05-10T02:56:31.567Z,9.54
2023-05-10T02:58:58.561Z,9.51
2023-05-10T03:01:25.506Z,9.50
2023-05-10T03:03:53.513Z,9.53
2023-05-10T03:06:20.499Z,9.58
2023-05-10T03:08:47.363Z,9.60
2023-05-10T03:11:38.429Z,9.57
2023-05-10T03:14:11.463Z,9.58
2023-05-10T03:16:48.416Z,9.57
2023-05-10T03:19:31.676Z,9.51
2023-05-10T03:22:00.598Z,9.43
2023-05-10T03:24:29.521Z,9.40
2023-05-10T03:26:58.025Z,9.44
2023-05-10T03:29:24.929Z,9.49
2023-05-10T03:31:51.977Z,9.51
2023-05-10T03:34:24.873Z,9.53
2023-05-10T03:36:52.217Z,9.55
2023-05-10T03:39:19.155Z,9.54
2023-05-10T03:41:49.521Z,9.55
2023-05-10T03:44:16.406Z,9.57
2023-05-10T03:46:44.642Z,9.62
2023-05-10T03:49:11.754Z,9.62
2023-05-10T03:51:38.741Z,9.59
2023-05-10T03:54:05.710Z,9.60
2023-05-10T03:56:32.646Z,9.60
2023-05-10T03:59:00.281Z,9.61
2023-05-10T04:01:27.163Z,9.63
2023-05-10T04:03:54.356Z,9.65
2023-05-10T04:06:21.487Z,9.71
2023-05-10T04:08:48.364Z,9.72
2023-05-10T04:11:15.260Z,9.57
2023-05-10T04:13:42.390Z,9.53
2023-05-10T04:16:09.316Z,9.54
2023-05-10T04:18:36.414Z,9.56
2023-05-10T04:21:03.814Z,9.61
2023-05-10T04:23:30.685Z,9.62
2023-05-10T04:26:02.110Z,9.68
2023-05-10T04:28:29.101Z,9.66
2023-05-10T04:31:03.612Z,9.67
2023-05-10T04:33:30.704Z,9.81
2023-05-10T04:35:58.720Z,9.93
2023-05-10T04:38:25.843Z,10.12
2023-05-10T04:40:52.732Z,10.44
2023-05-10T04:43:19.837Z,10.84
2023-05-10T04:45:46.929Z,11.32
2023-05-10T04:48:14.197Z,11.77
2023-05-10T04:50:41.270Z,11.89
2023-05-10T04:53:08.246Z,11.66
2023-05-10T04:57:57.789Z,11.25
2023-05-10T05:00:25.411Z,11.85
2023-05-10T05:02:52.464Z,12.12
2023-05-10T05:05:19.253Z,12.06
2023-05-10T05:07:46.242Z,12.03
2023-05-10T05:10:13.052Z,11.99
2023-05-10T05:12:39.866Z,12.01
2023-05-10T05:15:09.774Z,12.06
2023-05-10T05:17:37.398Z,12.21
2023-05-10T05:20:05.049Z,12.36
2023-05-10T05:22:32.515Z,12.58
2023-05-10T05:24:59.321Z,12.64
2023-05-10T05:27:28.335Z,12.57
2023-05-10T05:29:58.131Z,12.54
2023-05-10T05:32:25.983Z,12.56
2023-05-10T05:34:52.694Z,12.52
2023-05-10T05:37:20.521Z,12.65
2023-05-10T05:39:47.417Z,12.78
2023-05-10T05:42:14.420Z,12.89
2023-05-10T05:44:41.149Z,13.09
2023-05-10T05:47:07.849Z,13.18
2023-05-10T05:49:34.478Z,13.34
2023-05-10T05:52:02.337Z,13.56
2023-05-10T05:54:29.925Z,13.80
2023-05-10T05:57:01.423Z,13.98
2023-05-10T05:59:28.466Z,14.18
2023-05-10T06:01:55.277Z,14.28
2023-05-10T06:04:22.091Z,14.28
2023-05-10T06:06:49.140Z,14.06
2023-05-10T06:09:16.329Z,14.00
2023-05-10T06:11:43.274Z,14.09
2023-05-10T06:14:10.026Z,13.97
2023-05-10T06:16:36.788Z,13.97
2023-05-10T06:19:03.611Z,13.85
2023-05-10T06:21:30.744Z,13.89
2023-05-10T06:23:57.399Z,14.00
2023-05-10T06:26:24.248Z,13.99
2023-05-10T06:28:50.893Z,13.98
2023-05-10T06:31:18.237Z,14.10
2023-05-10T06:33:45.180Z,14.40
2023-05-10T06:36:11.966Z,14.61
2023-05-10T06:38:38.628Z,14.13
2023-05-10T06:41:05.917Z,13.83
2023-05-10T06:43:33.253Z,13.70
2023-05-10T06:46:00.303Z,13.57
2023-05-10T06:48:28.627Z,13.78
2023-05-10T06:50:55.359Z,13.93
2023-05-10T06:53:22.479Z,13.87
2023-05-10T06:55:49.891Z,13.94
2023-05-10T06:58:16.991Z,14.09
2023-05-10T07:00:44.271Z,14.35
2023-05-10T07:03:12.472Z,14.53
2023-05-10T07:05:39.525Z,14.74
2023-05-10T07:08:06.578Z,14.61
2023-05-10T07:10:33.954Z,14.54
2023-05-10T07:13:01.783Z,14.48
2023-05-10T07:15:29.289Z,14.41
2023-05-10T07:17:56.087Z,14.50
2023-05-10T07:20:22.923Z,14.18
2023-05-10T07:22:49.818Z,14.29
2023-05-10T07:25:16.653Z,14.66
2023-05-10T07:27:43.716Z,15.00
2023-05-10T07:30:11.077Z,15.10
2023-05-10T07:32:38.109Z,14.91
2023-05-10T07:35:05.977Z,14.42
2023-05-10T07:37:33.003Z,14.37
2023-05-10T07:39:59.924Z,14.50
2023-05-10T07:42:27.297Z,14.47
2023-05-10T07:44:53.936Z,14.29
2023-05-10T07:47:21.021Z,14.02
2023-05-10T07:49:48.447Z,14.26
2023-05-10T07:52:15.815Z,14.68
2023-05-10T07:54:42.790Z,14.92
2023-05-10T07:57:09.606Z,14.89
2023-05-10T07:59:36.852Z,15.02
2023-05-10T08:02:03.771Z,15.31
2023-05-10T08:04:30.589Z,15.53
2023-05-10T08:06:57.225Z,15.75
2023-05-10T08:09:24.364Z,15.98
2023-05-10T08:11:51.139Z,15.79
2023-05-10T08:14:17.905Z,15.15
2023-05-10T08:16:44.534Z,14.61
2023-05-10T08:19:11.762Z,14.61
2023-05-10T08:21:38.715Z,14.82
2023-05-10T08:24:05.902Z,15.16
2023-05-10T08:26:33.288Z,15.35
2023-05-10T08:29:00.201Z,15.41
2023-05-10T08:31:26.902Z,15.19
2023-05-10T08:33:53.727Z,15.40
2023-05-10T08:36:22.236Z,15.46
2023-05-10T08:38:52.125Z,15.13
2023-05-10T08:41:21.765Z,15.17
2023-05-10T08:43:48.468Z,15.31
2023-05-10T08:46:18.211Z,15.38
2023-05-10T08:48:45.869Z,15.48
2023-05-10T08:51:14.467Z,15.50
2023-05-10T08:53:41.251Z,15.30
2023-05-10T08:56:07.922Z,14.80
2023-05-10T08:58:35.824Z,14.30
2023-05-10T09:01:02.677Z,14.08
2023-05-10T09:03:30.563Z,14.13
2023-05-10T09:05:57.672Z,14.21
2023-05-10T09:08:27.765Z,14.41
2023-05-10T09:10:57.470Z,14.59
2023-05-10T09:13:24.756Z,14.64
2023-05-10T09:15:51.456Z,14.54
2023-05-10T09:18:18.765Z,14.42
2023-05-10T09:20:45.882Z,14.47
2023-05-10T09:23:12.963Z,14.17
2023-05-10T09:25:40.598Z,14.25
2023-05-10T09:28:09.009Z,14.50
2023-05-10T09:30:36.857Z,14.78
2023-05-10T09:33:04.064Z,14.91
2023-05-10T09:35:32.292Z,14.50
2023-05-10T09:38:04.290Z,14.35
2023-05-10T09:40:31.693Z,14.53
2023-05-10T09:43:07.323Z,14.72
2023-05-10T09:45:37.735Z,15.00
2023-05-10T09:48:05.773Z,15.11
2023-05-10T09:50:34.437Z,14.98
2023-05-10T09:53:03.500Z,14.69
2023-05-10T09:55:45.640Z,14.63
2023-05-10T09:58:13.515Z,14.66
2023-05-10T10:00:41.335Z,14.84
2023-05-10T10:03:17.447Z,15.01
2023-05-10T10:05:44.517Z,15.10
2023-05-10T10:08:12.535Z,15.04
2023-05-10T10:10:40.845Z,15.19
2023-05-10T10:13:07.636Z,15.26
2023-05-10T10:15:34.989Z,15.42
2023-05-10T10:18:01.972Z,15.60
2023-05-10T10:20:28.956Z,15.66
2023-05-10T10:22:55.649Z,15.53
2023-05-10T10:25:22.837Z,15.53
2023-05-10T10:27:52.250Z,15.54
2023-05-10T10:30:43.999Z,15.59
2023-05-10T10:33:33.180Z,15.69
2023-05-10T10:36:01.122Z,15.84
2023-05-10T10:38:46.788Z,16.06
2023-05-10T10:41:32.008Z,16.30
2023-05-10T10:44:27.000Z,16.50
2023-05-10T10:47:14.897Z,16.61
2023-05-10T10:49:41.896Z,16.03
2023-05-10T10:52:30.288Z,15.36
2023-05-10T10:55:17.424Z,14.67
2023-05-10T10:57:48.023Z,14.33
2023-05-10T11:00:28.053Z,14.70
2023-05-10T11:03:15.116Z,14.95
2023-05-10T11:05:48.759Z,15.22
2023-05-10T11:08:30.747Z,15.49
2023-05-10T11:11:00.615Z,15.50
2023-05-10T11:13:32.377Z,15.81
2023-05-10T11:15:59.622Z,16.13
2023-05-10T11:18:27.586Z,16.17
2023-05-10T11:21:03.793Z,16.10
2023-05-10T11:23:31.997Z,16.27
2023-05-10T11:25:59.843Z,16.50
2023-05-10T11:28:26.692Z,16.56
2023-05-10T11:30:53.342Z,16.59
2023-05-10T11:33:20.187Z,16.56
2023-05-10T11:35:46.940Z,16.64
2023-05-10T11:38:13.781Z,17.04
2023-05-10T11:40:40.892Z,17.38
2023-05-10T11:43:10.634Z,17.40
2023-05-10T11:45:37.337Z,17.47
2023-05-10T11:48:04.754Z,17.58
2023-05-10T11:50:31.497Z,17.80
2023-05-10T11:52:59.203Z,18.05
2023-05-10T11:55:25.978Z,18.34
2023-05-10T11:57:53.682Z,18.47
2023-05-10T12:00:20.803Z,18.38
2023-05-10T12:02:48.598Z,18.29
2023-05-10T12:05:15.622Z,18.36
2023-05-10T12:07:42.695Z,18.45
2023-05-10T12:10:15.167Z,18.49
2023-05-10T12:12:49.974Z,18.46
2023-05-10T12:15:22.853Z,18.28
2023-05-10T12:17:49.980Z,18.07
2023-05-10T12:20:20.563Z,18.11
2023-05-10T12:22:49.740Z,18.57
2023-05-10T12:25:17.198Z,18.63
2023-05-10T12:27:55.428Z,18.60
2023-05-10T12:30:26.817Z,18.28
2023-05-10T12:32:53.483Z,18.09
2023-05-10T12:35:22.375Z,18.10
2023-05-10T12:37:48.970Z,17.79
2023-05-10T12:40:19.110Z,17.66
2023-05-10T12:42:46.784Z,17.40
2023-05-10T12:45:13.382Z,17.22
2023-05-10T12:47:43.087Z,17.55
2023-05-10T12:50:11.328Z,17.99
2023-05-10T12:52:38.125Z,18.35
2023-05-10T12:55:06.986Z,18.66
2023-05-10T12:57:33.868Z,18.60
2023-05-10T13:00:00.461Z,18.12
2023-05-10T13:02:27.313Z,17.82
2023-05-10T13:04:54.039Z,18.12
2023-05-10T13:07:20.828Z,18.36
2023-05-10T13:09:47.477Z,17.80
2023-05-10T13:12:14.333Z,17.37
2023-05-10T13:14:42.049Z,17.44
2023-05-10T13:17:08.836Z,17.80
2023-05-10T13:19:35.754Z,18.38
2023-05-10T13:22:03.105Z,18.88
2023-05-10T13:24:30.780Z,18.98
2023-05-10T13:26:58.473Z,18.77
2023-05-10T13:29:25.213Z,18.39
2023-05-10T13:31:51.917Z,17.55
2023-05-10T13:34:20.750Z,17.32
2023-05-10T13:36:48.158Z,17.45
2023-05-10T13:39:15.200Z,17.68
2023-05-10T13:41:42.053Z,18.01
2023-05-10T13:44:08.719Z,18.31
2023-05-10T13:46:35.403Z,18.56
2023-05-10T13:49:02.418Z,18.56
2023-05-10T13:51:29.317Z,18.36
2023-05-10T13:53:55.909Z,18.50
2023-05-10T13:56:22.548Z,18.73
2023-05-10T13:58:49.187Z,19.19
2023-05-10T14:01:15.915Z,19.35
2023-05-10T14:03:42.727Z,19.09
2023-05-10T14:06:09.558Z,18.32
2023-05-10T14:08:37.018Z,17.89
2023-05-10T14:11:03.616Z,17.52
2023-05-10T14:13:30.304Z,17.21
2023-05-10T14:15:57.098Z,16.96
2023-05-10T14:18:24.116Z,17.34
2023-05-10T14:20:50.798Z,17.74
2023-05-10T14:23:20.634Z,17.91
2023-05-10T14:25:47.192Z,18.20
2023-05-10T14:28:14.801Z,18.39
2023-05-10T14:30:41.501Z,18.43
2023-05-10T14:33:08.165Z,18.23
2023-05-10T14:35:34.833Z,18.10
2023-05-10T14:38:03.940Z,17.64
2023-05-10T14:40:30.690Z,17.52
2023-05-10T14:42:57.262Z,17.57
2023-05-10T14:45:23.968Z,17.91
2023-05-10T14:47:50.931Z,18.36
2023-05-10T14:50:34.687Z,18.34
2023-05-10T14:53:08.144Z,18.66
2023-05-10T14:55:35.537Z,19.05
2023-05-10T14:58:03.142Z,19.13
2023-05-10T15:00:31.084Z,19.07
2023-05-10T15:02:58.615Z,19.14
2023-05-10T15:05:25.968Z,19.39
2023-05-10T15:07:53.119Z,19.84
2023-05-10T15:10:19.969Z,19.84
2023-05-10T15:12:47.180Z,19.68
2023-05-10T15:15:13.992Z,18.95
2023-05-10T15:17:40.875Z,18.22
2023-05-10T15:20:08.423Z,17.65
2023-05-10T15:22:35.708Z,16.90
2023-05-10T15:25:03.445Z,16.43
2023-05-10T15:27:30.780Z,16.24
2023-05-10T15:29:57.462Z,16.26
2023-05-10T15:32:24.048Z,16.34
2023-05-10T15:34:50.802Z,16.29
2023-05-10T15:37:17.376Z,16.22
2023-05-10T15:39:44.407Z,16.20
2023-05-10T15:42:11.078Z,16.16
2023-05-10T15:44:38.810Z,16.18
2023-05-10T15:47:06.301Z,16.35
2023-05-10T15:49:34.181Z,16.62
2023-05-10T15:52:00.949Z,16.81
2023-05-10T15:54:27.525Z,17.05
2023-05-10T15:56:54.484Z,17.39
2023-05-10T15:59:21.176Z,17.75
2023-05-10T16:01:48.017Z,18.12
2023-05-10T16:04:14.652Z,18.32
2023-05-10T16:06:41.454Z,18.40
2023-05-10T16:09:08.142Z,18.56
2023-05-10T16:11:34.802Z,18.61
2023-05-10T16:14:01.636Z,18.52
2023-05-10T16:16:28.442Z,18.62
2023-05-10T16:18:55.186Z,18.84
2023-05-10T16:21:21.801Z,18.80
2023-05-10T16:23:48.962Z,18.50
2023-05-10T16:26:15.586Z,18.18
2023-05-10T16:28:42.254Z,18.02
2023-05-10T16:31:09.001Z,18.03
2023-05-10T16:33:36.625Z,18.05
2023-05-10T16:36:04.402Z,18.13
2023-05-10T16:38:31.104Z,18.11
2023-05-10T16:40:57.957Z,18.03
2023-05-10T16:43:26.239Z,17.82
2023-05-10T16:45:53.194Z,17.37
2023-05-10T16:48:19.834Z,16.93
2023-05-10T16:50:47.333Z,16.50
2023-05-10T16:53:14.008Z,16.15
2023-05-10T16:55:40.898Z,15.88
2023-05-10T16:58:07.527Z,15.70
2023-05-10T17:00:34.433Z,15.54
2023-05-10T17:03:01.381Z,15.40
2023-05-10T17:05:28.817Z,15.27
2023-05-10T17:07:55.572Z,15.14
2023-05-10T17:10:22.441Z,15.07
2023-05-10T17:15:17.640Z,14.50
2023-05-10T17:17:45.113Z,14.73
2023-05-10T17:20:12.139Z,14.72
2023-05-10T17:22:38.916Z,14.69
2023-05-10T17:25:06.634Z,14.64
2023-05-10T17:27:33.404Z,14.53
2023-05-10T17:30:00.196Z,14.47
2023-05-10T17:32:27.058Z,14.39
2023-05-10T17:34:54.039Z,14.31
2023-05-10T17:37:23.006Z,14.24
2023-05-10T17:39:49.840Z,14.16
2023-05-10T17:42:19.124Z,14.10
2023-05-10T17:44:45.944Z,14.05
2023-05-10T17:47:12.830Z,14.00
2023-05-10T17:49:40.093Z,13.94
2023-05-10T17:52:07.554Z,13.89
2023-05-10T17:54:34.530Z,13.85
2023-05-10T17:57:03.921Z,13.80
2023-05-10T17:59:30.831Z,13.81
2023-05-10T18:01:58.722Z,13.77
2023-05-10T18:04:26.103Z,13.75
2023-05-10T18:07:01.275Z,13.73
2023-05-10T18:09:29.565Z,13.67
2023-05-10T18:11:56.523Z,13.69
2023-05-10T18:14:36.475Z,13.65
2023-05-10T18:17:09.543Z,13.63
2023-05-10T18:19:36.698Z,13.61
2023-05-10T18:22:03.625Z,13.62
2023-05-10T18:24:38.809Z,13.60
2023-05-10T18:27:07.206Z,13.53
2023-05-10T18:29:34.288Z,13.49
2023-05-10T18:32:01.100Z,13.49
2023-05-10T18:34:27.915Z,13.46
2023-05-10T18:36:54.813Z,13.38
2023-05-10T18:39:21.751Z,13.33
2023-05-10T18:41:49.281Z,13.28
2023-05-10T18:44:16.127Z,13.25
2023-05-10T18:46:43.509Z,13.23
2023-05-10T18:49:10.556Z,13.22
2023-05-10T18:51:37.373Z,13.20
2023-05-10T18:54:04.559Z,13.21
2023-05-10T18:56:31.503Z,13.23
2023-05-10T18:58:59.392Z,13.25
2023-05-10T19:01:26.430Z,13.26
2023-05-10T19:03:53.363Z,13.25
2023-05-10T19:06:21.311Z,13.25
2023-05-10T19:08:50.417Z,13.25
2023-05-10T19:11:17.536Z,13.25
2023-05-10T19:13:45.459Z,13.25
2023-05-10T19:16:16.000Z,13.22
2023-05-10T19:18:46.858Z,13.19
2023-05-10T19:21:13.916Z,13.15
2023-05-10T19:23:42.123Z,13.11
2023-05-10T19:26:11.095Z,13.11
2023-05-10T19:28:38.256Z,13.09
2023-05-10T19:31:05.090Z,13.08
2023-05-10T19:33:33.435Z,13.04
2023-05-10T19:36:00.339Z,13.01
2023-05-10T19:38:27.754Z,12.98
2023-05-10T19:40:58.410Z,12.98
2023-05-10T19:43:26.138Z,12.94
2023-05-10T19:45:52.904Z,12.90
2023-05-10T19:48:19.693Z,12.85
2023-05-10T19:50:46.532Z,12.83
2023-05-10T19:53:13.404Z,12.81
2023-05-10T19:55:40.243Z,12.79
2023-05-10T19:58:07.112Z,12.77
2023-05-10T20:00:33.973Z,12.73
2023-05-10T20:03:01.336Z,12.70
2023-05-10T20:05:28.881Z,12.67
2023-05-10T20:07:55.784Z,12.65
2023-05-10T20:10:23.481Z,12.63
2023-05-10T20:12:53.015Z,12.63
2023-05-10T20:15:21.524Z,12.65
2023-05-10T20:17:49.033Z,12.64
2023-05-10T20:20:16.873Z,12.59
2023-05-10T20:22:44.334Z,12.54
2023-05-10T20:25:11.308Z,12.52
2023-05-10T20:27:38.147Z,12.52
2023-05-10T20:30:05.853Z,12.53
2023-05-10T20:32:32.838Z,12.52
2023-05-10T20:34:59.695Z,12.52
2023-05-10T20:37:28.091Z,12.50
2023-05-10T20:39:55.034Z,12.45
2023-05-10T20:42:22.094Z,12.38
2023-05-10T20:44:49.848Z,12.40
2023-05-10T20:47:16.763Z,12.45
2023-05-10T20:49:43.968Z,12.45
2023-05-10T20:52:10.782Z,12.42
2023-05-10T20:54:37.621Z,12.39
2023-05-10T20:57:04.526Z,12.36
2023-05-10T20:59:31.354Z,12.33
2023-05-10T21:01:58.318Z,12.34
2023-05-10T21:04:25.981Z,12.35
2023-05-10T21:06:53.433Z,12.37
2023-05-10T21:09:20.221Z,12.38
2023-05-10T21:11:48.643Z,12.38
2023-05-10T21:14:15.528Z,12.37
2023-05-10T21:16:43.601Z,12.37
2023-05-10T21:19:10.666Z,12.37
2023-05-10T21:21:37.554Z,12.37
2023-05-10T21:24:04.649Z,12.35
2023-05-10T21:26:31.608Z,12.35
2023-05-10T21:28:59.380Z,12.36
2023-05-10T21:31:26.255Z,12.38
2023-05-10T21:33:54.182Z,12.39
2023-05-10T21:36:20.987Z,12.39
2023-05-10T21:38:50.751Z,12.39
2023-05-10T21:41:17.755Z,12.40
2023-05-10T21:43:44.579Z,12.38
2023-05-10T21:46:13.542Z,12.36
2023-05-10T21:48:40.535Z,12.33
2023-05-10T21:51:08.376Z,12.30
2023-05-10T21:53:36.574Z,12.27
2023-05-10T21:56:03.421Z,12.23
2023-05-10T21:58:30.261Z,12.11
2023-05-10T22:00:57.153Z,12.02
2023-05-10T22:03:24.240Z,11.99
2023-05-10T22:05:51.338Z,11.95
2023-05-10T22:08:18.115Z,11.91
2023-05-10T22:10:44.882Z,11.89
2023-05-10T22:13:11.658Z,11.85
2023-05-10T22:15:38.435Z,11.82
2023-05-10T22:18:05.627Z,11.81
2023-05-10T22:20:32.666Z,11.80
2023-05-10T22:22:59.550Z,11.80
2023-05-10T22:25:26.392Z,11.78
2023-05-10T22:27:53.251Z,11.76
2023-05-10T22:30:20.267Z,11.74
2023-05-10T22:32:47.521Z,11.73
2023-05-10T22:35:14.312Z,11.73
2023-05-10T22:37:41.715Z,11.73
2023-05-10T22:40:09.536Z,11.72
2023-05-10T22:42:36.293Z,11.72
2023-05-10T22:45:03.112Z,11.72
2023-05-10T22:47:29.938Z,11.72
2023-05-10T22:49:58.289Z,11.72
2023-05-10T22:52:25.271Z,11.72
2023-05-10T22:54:52.087Z,11.72
2023-05-10T22:57:18.937Z,11.70
2023-05-10T22:59:48.203Z,11.66
2023-05-10T23:02:15.456Z,11.67
2023-05-10T23:04:42.294Z,11.66
2023-05-10T23:07:09.200Z,11.62
2023-05-10T23:09:36.023Z,11.61
2023-05-10T23:12:03.223Z,11.59
2023-05-10T23:14:30.258Z,11.55
2023-05-10T23:16:57.113Z,11.54
2023-05-10T23:19:24.854Z,11.54
2023-05-10T23:21:51.616Z,11.56
2023-05-10T23:24:18.491Z,11.57
2023-05-10T23:26:46.575Z,11.54
2023-05-10T23:29:13.471Z,11.52
2023-05-10T23:31:45.722Z,11.52
2023-05-10T23:34:12.862Z,11.49
2023-05-10T23:36:39.651Z,11.47
2023-05-10T23:39:07.012Z,11.47
2023-05-10T23:41:34.387Z,11.47
2023-05-10T23:44:02.488Z,11.47
2023-05-10T23:46:29.284Z,11.46
2023-05-10T23:48:56.139Z,11.46
2023-05-10T23:51:22.995Z,11.48
2023-05-10T23:53:49.838Z,11.49
2023-05-10T23:56:16.727Z,11.47
2023-05-10T23:58:44.222Z,11.46
